sensor_id;sensor_type;location;lat;lon;timestamp;temperature;humidity
21799;DHT22;24973;47.178;15.316;2024-02-04T01:19:39;4.10;99.90
21799;DHT22;24973;47.178;15.316;2024-02-04T01:22:27;4.20;99.90
21799;DHT22;24973;47.178;15.316;2024-02-04T01:25:17;4.20;99.90
21799;DHT22;24973;47.178;15.316;2024-02-04T01:28:06;4.30;99.90
21799;DHT22;24973;47.178;15.316;2024-02-04T01:30:54;4.30;99.90
21799;DHT22;24973;47.178;15.316;2024-02-04T01:33:45;4.30;99.90
21799;DHT22;24973;47.178;15.316;2024-02-04T01:36:34;4.40;99.90
21799;DHT22;24973;47.178;15.316;2024-02-04T01:39:23;4.40;99.90
21799;DHT22;24973;47.178;15.316;2024-02-04T01:42:12;4.50;99.90
21799;DHT22;24973;47.178;15.316;2024-02-04T01:45:01;4.50;99.90
21799;DHT22;24973;47.178;15.316;2024-02-04T01:47:50;4.60;99.90
21799;DHT22;24973;47.178;15.316;2024-02-04T01:50:41;4.60;99.90
21799;DHT22;24973;47.178;15.316;2024-02-04T01:53:32;4.70;99.90
21799;DHT22;24973;47.178;15.316;2024-02-04T01:56:22;4.80;99.90
21799;DHT22;24973;47.178;15.316;2024-02-04T01:59:11;4.80;99.90
21799;DHT22;24973;47.178;15.316;2024-02-04T02:02:01;4.70;99.90
21799;DHT22;24973;47.178;15.316;2024-02-04T02:04:51;4.60;99.90
21799;DHT22;24973;47.178;15.316;2024-02-04T02:07:41;4.60;99.90
21799;DHT22;24973;47.178;15.316;2024-02-04T02:10:33;4.70;99.90
21799;DHT22;24973;47.178;15.316;2024-02-04T02:13:24;4.80;99.90
21799;DHT22;24973;47.178;15.316;2024-02-04T02:16:18;4.80;99.90
21799;DHT22;24973;47.178;15.316;2024-02-04T02:19:18;4.90;99.90
21799;DHT22;24973;47.178;15.316;2024-02-04T02:22:28;4.80;99.90
21799;DHT22;24973;47.178;15.316;2024-02-04T02:25:20;4.70;99.90
21799;DHT22;24973;47.178;15.316;2024-02-04T02:28:09;4.70;99.90
21799;DHT22;24973;47.178;15.316;2024-02-04T02:30:58;4.70;99.90
21799;DHT22;24973;47.178;15.316;2024-02-04T02:33:48;4.70;99.90
21799;DHT22;24973;47.178;15.316;2024-02-04T02:36:44;4.70;99.90
21799;DHT22;24973;47.178;15.316;2024-02-04T02:39:39;4.60;99.90
21799;DHT22;24973;47.178;15.316;2024-02-04T02:42:35;4.60;99.90
21799;DHT22;24973;47.178;15.316;2024-02-04T02:45:25;4.90;99.90
21799;DHT22;24973;47.178;15.316;2024-02-04T02:48:15;4.60;99.90
21799;DHT22;24973;47.178;15.316;2024-02-04T02:51:05;4.60;99.90
21799;DHT22;24973;47.178;15.316;2024-02-04T02:53:54;4.50;99.90
21799;DHT22;24973;47.178;15.316;2024-02-04T02:56:43;4.50;99.90
21799;DHT22;24973;47.178;15.316;2024-02-04T02:59:33;4.60;99.90
21799;DHT22;24973;47.178;15.316;2024-02-04T03:02:22;4.50;99.90
21799;DHT22;24973;47.178;15.316;2024-02-04T03:05:12;4.40;99.90
21799;DHT22;24973;47.178;15.316;2024-02-04T03:08:01;4.40;99.90
21799;DHT22;24973;47.178;15.316;2024-02-04T03:10:50;4.40;99.90
21799;DHT22;24973;47.178;15.316;2024-02-04T03:13:39;4.40;99.90
21799;DHT22;24973;47.178;15.316;2024-02-04T03:16:29;4.40;99.90
21799;DHT22;24973;47.178;15.316;2024-02-04T03:19:18;4.30;99.90
21799;DHT22;24973;47.178;15.316;2024-02-04T03:22:07;4.20;99.90
21799;DHT22;24973;47.178;15.316;2024-02-04T03:24:56;4.20;99.90
21799;DHT22;24973;47.178;15.316;2024-02-04T03:27:45;4.20;99.90
21799;DHT22;24973;47.178;15.316;2024-02-04T03:30:34;4.30;99.90
21799;DHT22;24973;47.178;15.316;2024-02-04T03:33:24;4.40;99.90
21799;DHT22;24973;47.178;15.316;2024-02-04T03:36:15;4.40;99.90
21799;DHT22;24973;47.178;15.316;2024-02-04T03:39:06;4.40;99.90
21799;DHT22;24973;47.178;15.316;2024-02-04T03:41:55;4.50;99.90
21799;DHT22;24973;47.178;15.316;2024-02-04T03:44:44;4.50;99.90
21799;DHT22;24973;47.178;15.316;2024-02-04T03:47:33;4.50;99.90
21799;DHT22;24973;47.178;15.316;2024-02-04T03:50:23;4.40;99.90
21799;DHT22;24973;47.178;15.316;2024-02-04T03:53:12;4.40;99.90
21799;DHT22;24973;47.178;15.316;2024-02-04T03:56:01;4.40;99.90
21799;DHT22;24973;47.178;15.316;2024-02-04T03:58:50;4.20;99.90
21799;DHT22;24973;47.178;15.316;2024-02-04T04:01:39;4.20;99.90
21799;DHT22;24973;47.178;15.316;2024-02-04T04:04:29;4.20;99.90
21799;DHT22;24973;47.178;15.316;2024-02-04T04:07:20;4.20;99.90
21799;DHT22;24973;47.178;15.316;2024-02-04T04:10:09;4.20;99.90
21799;DHT22;24973;47.178;15.316;2024-02-04T04:12:58;4.20;99.90
21799;DHT22;24973;47.178;15.316;2024-02-04T04:15:47;4.30;99.90
21799;DHT22;24973;47.178;15.316;2024-02-04T04:18:35;4.40;99.90
21799;DHT22;24973;47.178;15.316;2024-02-04T04:21:24;4.50;99.90
21799;DHT22;24973;47.178;15.316;2024-02-04T04:24:15;4.60;99.90
21799;DHT22;24973;47.178;15.316;2024-02-04T04:27:07;4.70;99.90
21799;DHT22;24973;47.178;15.316;2024-02-04T04:29:56;4.80;99.90
21799;DHT22;24973;47.178;15.316;2024-02-04T04:32:44;4.80;99.90
21799;DHT22;24973;47.178;15.316;2024-02-04T04:35:33;4.90;99.90
21799;DHT22;24973;47.178;15.316;2024-02-04T04:38:22;4.90;99.90
21799;DHT22;24973;47.178;15.316;2024-02-04T04:41:12;5.00;99.90
21799;DHT22;24973;47.178;15.316;2024-02-04T04:44:01;5.00;99.90
21799;DHT22;24973;47.178;15.316;2024-02-04T04:46:50;5.10;99.90
21799;DHT22;24973;47.178;15.316;2024-02-04T04:49:39;5.00;99.90
21799;DHT22;24973;47.178;15.316;2024-02-04T04:52:29;5.10;99.90
21799;DHT22;24973;47.178;15.316;2024-02-04T04:55:18;5.10;99.90
21799;DHT22;24973;47.178;15.316;2024-02-04T04:58:09;5.20;99.90
21799;DHT22;24973;47.178;15.316;2024-02-04T05:00:58;5.20;99.90
21799;DHT22;24973;47.178;15.316;2024-02-04T05:03:47;5.20;99.90
21799;DHT22;24973;47.178;15.316;2024-02-04T05:06:36;5.20;99.90
21799;DHT22;24973;47.178;15.316;2024-02-04T05:09:25;5.30;99.90
21799;DHT22;24973;47.178;15.316;2024-02-04T05:12:13;5.50;99.90
21799;DHT22;24973;47.178;15.316;2024-02-04T05:15:05;5.60;99.90
21799;DHT22;24973;47.178;15.316;2024-02-04T05:17:55;5.70;99.90
21799;DHT22;24973;47.178;15.316;2024-02-04T05:20:43;5.70;99.90
21799;DHT22;24973;47.178;15.316;2024-02-04T05:23:32;5.90;99.90
21799;DHT22;24973;47.178;15.316;2024-02-04T05:26:21;5.90;99.90
21799;DHT22;24973;47.178;15.316;2024-02-04T05:29:10;6.00;99.90
21799;DHT22;24973;47.178;15.316;2024-02-04T05:32:00;5.90;99.90
21799;DHT22;24973;47.178;15.316;2024-02-04T05:34:49;5.90;99.90
21799;DHT22;24973;47.178;15.316;2024-02-04T05:37:38;5.90;99.90
21799;DHT22;24973;47.178;15.316;2024-02-04T05:40:27;5.90;99.90
21799;DHT22;24973;47.178;15.316;2024-02-04T05:43:16;5.90;99.90
21799;DHT22;24973;47.178;15.316;2024-02-04T05:46:04;6.00;99.90
21799;DHT22;24973;47.178;15.316;2024-02-04T05:48:55;6.00;99.90
21799;DHT22;24973;47.178;15.316;2024-02-04T05:51:44;5.90;99.90
21799;DHT22;24973;47.178;15.316;2024-02-04T05:54:37;5.80;99.90
21799;DHT22;24973;47.178;15.316;2024-02-04T05:57:28;6.00;99.90
21799;DHT22;24973;47.178;15.316;2024-02-04T06:00:18;6.20;99.90
21799;DHT22;24973;47.178;15.316;2024-02-04T06:03:07;6.40;99.90
21799;DHT22;24973;47.178;15.316;2024-02-04T06:05:57;6.30;99.90
21799;DHT22;24973;47.178;15.316;2024-02-04T06:08:46;6.10;99.90
21799;DHT22;24973;47.178;15.316;2024-02-04T06:11:36;6.10;99.90
21799;DHT22;24973;47.178;15.316;2024-02-04T06:14:25;5.90;99.90
21799;DHT22;24973;47.178;15.316;2024-02-04T06:17:13;5.90;99.90
21799;DHT22;24973;47.178;15.316;2024-02-04T06:20:03;5.80;99.90
21799;DHT22;24973;47.178;15.316;2024-02-04T06:22:54;5.60;99.90
21799;DHT22;24973;47.178;15.316;2024-02-04T06:25:45;5.50;99.90
21799;DHT22;24973;47.178;15.316;2024-02-04T06:28:33;5.40;99.90
21799;DHT22;24973;47.178;15.316;2024-02-04T06:31:22;5.30;99.90
21799;DHT22;24973;47.178;15.316;2024-02-04T06:34:11;5.30;99.90
21799;DHT22;24973;47.178;15.316;2024-02-04T06:37:00;5.20;99.90
21799;DHT22;24973;47.178;15.316;2024-02-04T06:39:51;5.20;99.90
21799;DHT22;24973;47.178;15.316;2024-02-04T06:42:40;6.00;99.90
21799;DHT22;24973;47.178;15.316;2024-02-04T06:45:29;5.10;99.90
21799;DHT22;24973;47.178;15.316;2024-02-04T06:48:19;5.10;99.90
21799;DHT22;24973;47.178;15.316;2024-02-04T06:51:08;5.00;99.90
21799;DHT22;24973;47.178;15.316;2024-02-04T06:53:57;5.00;99.90
21799;DHT22;24973;47.178;15.316;2024-02-04T06:56:47;5.00;99.90
21799;DHT22;24973;47.178;15.316;2024-02-04T06:59:36;5.00;99.90
21799;DHT22;24973;47.178;15.316;2024-02-04T07:02:25;4.90;99.90
21799;DHT22;24973;47.178;15.316;2024-02-04T07:05:14;4.80;99.90
21799;DHT22;24973;47.178;15.316;2024-02-04T07:08:03;4.80;99.90
21799;DHT22;24973;47.178;15.316;2024-02-04T07:10:53;4.60;99.90
21799;DHT22;24973;47.178;15.316;2024-02-04T07:13:44;4.70;99.90
21799;DHT22;24973;47.178;15.316;2024-02-04T07:16:33;4.70;99.90
21799;DHT22;24973;47.178;15.316;2024-02-04T07:19:22;4.80;99.90
21799;DHT22;24973;47.178;15.316;2024-02-04T07:22:11;5.00;99.90
21799;DHT22;24973;47.178;15.316;2024-02-04T07:25:00;5.20;99.90
21799;DHT22;24973;47.178;15.316;2024-02-04T07:27:51;5.50;99.90
21799;DHT22;24973;47.178;15.316;2024-02-04T07:30:41;5.80;99.90
21799;DHT22;24973;47.178;15.316;2024-02-04T07:33:30;6.20;99.90
21799;DHT22;24973;47.178;15.316;2024-02-04T07:36:19;6.50;99.90
21799;DHT22;24973;47.178;15.316;2024-02-04T07:39:07;6.80;99.90
21799;DHT22;24973;47.178;15.316;2024-02-04T07:41:56;7.30;99.90
21799;DHT22;24973;47.178;15.316;2024-02-04T07:44:48;7.70;99.90
21799;DHT22;24973;47.178;15.316;2024-02-04T07:47:38;8.10;99.90
21799;DHT22;24973;47.178;15.316;2024-02-04T07:50:28;8.50;99.90
21799;DHT22;24973;47.178;15.316;2024-02-04T07:53:17;8.90;99.90
21799;DHT22;24973;47.178;15.316;2024-02-04T07:56:06;9.40;99.90
21799;DHT22;24973;47.178;15.316;2024-02-04T07:58:55;9.80;99.90
21799;DHT22;24973;47.178;15.316;2024-02-04T08:01:44;10.20;99.90
21799;DHT22;24973;47.178;15.316;2024-02-04T08:04:35;10.40;99.90
21799;DHT22;24973;47.178;15.316;2024-02-04T08:07:24;10.70;99.90
21799;DHT22;24973;47.178;15.316;2024-02-04T08:10:13;10.90;99.90
21799;DHT22;24973;47.178;15.316;2024-02-04T08:13:03;11.20;99.90
21799;DHT22;24973;47.178;15.316;2024-02-04T08:15:52;11.60;99.90
21799;DHT22;24973;47.178;15.316;2024-02-04T08:18:41;11.80;99.90
21799;DHT22;24973;47.178;15.316;2024-02-04T08:21:31;12.20;99.90
21799;DHT22;24973;47.178;15.316;2024-02-04T08:24:20;12.40;99.90
21799;DHT22;24973;47.178;15.316;2024-02-04T08:27:10;12.50;99.80
21799;DHT22;24973;47.178;15.316;2024-02-04T08:29:59;12.70;99.30
21799;DHT22;24973;47.178;15.316;2024-02-04T08:32:50;12.80;98.90
21799;DHT22;24973;47.178;15.316;2024-02-04T08:35:39;12.90;98.60
21799;DHT22;24973;47.178;15.316;2024-02-04T08:38:30;13.00;98.30
21799;DHT22;24973;47.178;15.316;2024-02-04T08:41:19;13.10;97.90
21799;DHT22;24973;47.178;15.316;2024-02-04T08:44:08;13.10;97.60
21799;DHT22;24973;47.178;15.316;2024-02-04T08:46:59;13.20;97.30
21799;DHT22;24973;47.178;15.316;2024-02-04T08:49:49;13.30;96.80
21799;DHT22;24973;47.178;15.316;2024-02-04T08:52:38;13.50;96.80
21799;DHT22;24973;47.178;15.316;2024-02-04T08:55:28;13.70;97.00
21799;DHT22;24973;47.178;15.316;2024-02-04T08:58:17;13.80;96.00
21799;DHT22;24973;47.178;15.316;2024-02-04T09:01:06;13.90;95.80
21799;DHT22;24973;47.178;15.316;2024-02-04T09:03:55;14.10;95.40
21799;DHT22;24973;47.178;15.316;2024-02-04T09:06:44;14.10;94.40
21799;DHT22;24973;47.178;15.316;2024-02-04T09:09:33;14.20;94.10
21799;DHT22;24973;47.178;15.316;2024-02-04T09:12:24;14.30;93.80
21799;DHT22;24973;47.178;15.316;2024-02-04T09:15:13;14.40;93.80
21799;DHT22;24973;47.178;15.316;2024-02-04T09:18:02;14.50;93.30
21799;DHT22;24973;47.178;15.316;2024-02-04T09:20:52;14.50;93.00
21799;DHT22;24973;47.178;15.316;2024-02-04T09:23:41;14.60;93.20
21799;DHT22;24973;47.178;15.316;2024-02-04T09:26:30;14.70;92.90
21799;DHT22;24973;47.178;15.316;2024-02-04T09:29:21;14.60;92.50
21799;DHT22;24973;47.178;15.316;2024-02-04T09:32:10;14.40;92.00
21799;DHT22;24973;47.178;15.316;2024-02-04T09:35:00;14.40;92.50
21799;DHT22;24973;47.178;15.316;2024-02-04T09:37:49;14.50;92.90
21799;DHT22;24973;47.178;15.316;2024-02-04T09:40:38;14.60;93.00
21799;DHT22;24973;47.178;15.316;2024-02-04T09:43:27;14.90;92.90
21799;DHT22;24973;47.178;15.316;2024-02-04T09:46:18;15.00;91.90
21799;DHT22;24973;47.178;15.316;2024-02-04T09:49:09;15.20;91.90
21799;DHT22;24973;47.178;15.316;2024-02-04T09:51:59;15.40;91.40
21799;DHT22;24973;47.178;15.316;2024-02-04T09:54:55;15.60;91.30
21799;DHT22;24973;47.178;15.316;2024-02-04T09:57:47;15.80;91.10
21799;DHT22;24973;47.178;15.316;2024-02-04T10:00:38;16.00;90.60
21799;DHT22;24973;47.178;15.316;2024-02-04T10:03:33;16.20;90.00
21799;DHT22;24973;47.178;15.316;2024-02-04T10:06:22;16.40;89.10
21799;DHT22;24973;47.178;15.316;2024-02-04T10:09:11;16.50;88.10
21799;DHT22;24973;47.178;15.316;2024-02-04T10:12:00;16.70;87.60
21799;DHT22;24973;47.178;15.316;2024-02-04T10:14:49;16.90;88.10
21799;DHT22;24973;47.178;15.316;2024-02-04T10:17:42;17.20;88.20
21799;DHT22;24973;47.178;15.316;2024-02-04T10:20:33;17.40;87.30
21799;DHT22;24973;47.178;15.316;2024-02-04T10:23:22;17.60;85.80
21799;DHT22;24973;47.178;15.316;2024-02-04T10:26:11;17.80;85.10
21799;DHT22;24973;47.178;15.316;2024-02-04T10:29:01;18.00;84.70
21799;DHT22;24973;47.178;15.316;2024-02-04T10:31:53;18.20;83.90
21799;DHT22;24973;47.178;15.316;2024-02-04T10:34:43;18.20;82.80
21799;DHT22;24973;47.178;15.316;2024-02-04T10:37:34;18.30;82.00
21799;DHT22;24973;47.178;15.316;2024-02-04T10:40:23;18.30;81.80
21799;DHT22;24973;47.178;15.316;2024-02-04T10:43:13;18.40;81.30
21799;DHT22;24973;47.178;15.316;2024-02-04T10:46:08;18.90;79.90
21799;DHT22;24973;47.178;15.316;2024-02-04T10:49:00;19.70;77.70
21799;DHT22;24973;47.178;15.316;2024-02-04T10:51:51;20.40;74.10
21799;DHT22;24973;47.178;15.316;2024-02-04T10:54:42;20.60;73.50
21799;DHT22;24973;47.178;15.316;2024-02-04T10:57:33;20.70;70.60
21799;DHT22;24973;47.178;15.316;2024-02-04T11:00:22;20.90;69.30
21799;DHT22;24973;47.178;15.316;2024-02-04T11:03:11;20.20;69.00
21799;DHT22;24973;47.178;15.316;2024-02-04T11:06:01;19.60;70.60
21799;DHT22;24973;47.178;15.316;2024-02-04T11:08:51;19.70;72.90
21799;DHT22;24973;47.178;15.316;2024-02-04T11:11:44;20.00;73.20
21799;DHT22;24973;47.178;15.316;2024-02-04T11:14:34;19.80;71.20
21799;DHT22;24973;47.178;15.316;2024-02-04T11:24:40;18.30;71.80
21799;DHT22;24973;47.178;15.316;2024-02-04T11:27:45;18.10;74.30
21799;DHT22;24973;47.178;15.316;2024-02-04T11:30:37;17.90;74.80
21799;DHT22;24973;47.178;15.316;2024-02-04T11:33:28;18.10;75.10
21799;DHT22;24973;47.178;15.316;2024-02-04T11:36:17;18.20;74.00
21799;DHT22;24973;47.178;15.316;2024-02-04T11:39:12;18.40;74.10
21799;DHT22;24973;47.178;15.316;2024-02-04T11:42:14;18.20;73.10
21799;DHT22;24973;47.178;15.316;2024-02-04T11:45:12;18.20;73.80
21799;DHT22;24973;47.178;15.316;2024-02-04T11:48:01;18.10;73.60
21799;DHT22;24973;47.178;15.316;2024-02-04T11:50:53;18.00;73.60
21799;DHT22;24973;47.178;15.316;2024-02-04T11:53:43;18.10;74.30
21799;DHT22;24973;47.178;15.316;2024-02-04T11:56:32;18.00;74.20
21799;DHT22;24973;47.178;15.316;2024-02-04T11:59:24;18.10;75.40
21799;DHT22;24973;47.178;15.316;2024-02-04T12:02:16;18.30;72.70
21799;DHT22;24973;47.178;15.316;2024-02-04T12:05:06;18.20;70.90
21799;DHT22;24973;47.178;15.316;2024-02-04T12:07:56;18.50;70.90
21799;DHT22;24973;47.178;15.316;2024-02-04T12:10:45;18.60;71.20
21799;DHT22;24973;47.178;15.316;2024-02-04T12:13:34;18.80;71.50
21799;DHT22;24973;47.178;15.316;2024-02-04T12:16:28;19.00;71.60
21799;DHT22;24973;47.178;15.316;2024-02-04T12:19:18;19.10;71.70
21799;DHT22;24973;47.178;15.316;2024-02-04T12:22:07;19.40;71.60
21799;DHT22;24973;47.178;15.316;2024-02-04T12:24:57;19.70;71.10
21799;DHT22;24973;47.178;15.316;2024-02-04T12:27:47;20.20;70.00
21799;DHT22;24973;47.178;15.316;2024-02-04T12:30:36;20.10;65.80
21799;DHT22;24973;47.178;15.316;2024-02-04T12:33:25;19.40;64.00
21799;DHT22;24973;47.178;15.316;2024-02-04T12:36:16;18.70;65.70
21799;DHT22;24973;47.178;15.316;2024-02-04T12:39:05;18.30;66.20
21799;DHT22;24973;47.178;15.316;2024-02-04T12:41:57;18.60;67.50
21799;DHT22;24973;47.178;15.316;2024-02-04T12:44:47;19.00;68.40
21799;DHT22;24973;47.178;15.316;2024-02-04T12:47:36;19.20;66.80
21799;DHT22;24973;47.178;15.316;2024-02-04T12:50:25;20.00;67.10
21799;DHT22;24973;47.178;15.316;2024-02-04T12:53:15;20.80;64.90
21799;DHT22;24973;47.178;15.316;2024-02-04T12:56:07;21.60;64.50
21799;DHT22;24973;47.178;15.316;2024-02-04T12:58:56;22.50;62.70
21799;DHT22;24973;47.178;15.316;2024-02-04T13:01:45;23.00;61.10
21799;DHT22;24973;47.178;15.316;2024-02-04T13:04:35;22.80;59.90
21799;DHT22;24973;47.178;15.316;2024-02-04T13:07:24;22.80;58.80
21799;DHT22;24973;47.178;15.316;2024-02-04T13:10:15;23.00;58.80
21799;DHT22;24973;47.178;15.316;2024-02-04T13:13:06;22.80;58.60
21799;DHT22;24973;47.178;15.316;2024-02-04T13:15:56;22.40;59.20
21799;DHT22;24973;47.178;15.316;2024-02-04T13:18:45;22.30;59.20
21799;DHT22;24973;47.178;15.316;2024-02-04T13:21:40;21.90;58.90
21799;DHT22;24973;47.178;15.316;2024-02-04T13:24:29;21.10;59.00
21799;DHT22;24973;47.178;15.316;2024-02-04T13:27:19;20.70;60.50
21799;DHT22;24973;47.178;15.316;2024-02-04T13:30:08;20.40;61.30
21799;DHT22;24973;47.178;15.316;2024-02-04T13:33:01;20.10;61.80
21799;DHT22;24973;47.178;15.316;2024-02-04T13:35:53;19.60;62.60
21799;DHT22;24973;47.178;15.316;2024-02-04T13:38:42;19.20;63.50
21799;DHT22;24973;47.178;15.316;2024-02-04T13:41:32;18.90;64.50
21799;DHT22;24973;47.178;15.316;2024-02-04T13:44:22;18.90;65.00
21799;DHT22;24973;47.178;15.316;2024-02-04T13:47:11;18.70;65.10
21799;DHT22;24973;47.178;15.316;2024-02-04T13:50:00;18.50;65.40
21799;DHT22;24973;47.178;15.316;2024-02-04T13:52:50;18.30;63.30
21799;DHT22;24973;47.178;15.316;2024-02-04T13:55:39;18.30;65.60
21799;DHT22;24973;47.178;15.316;2024-02-04T13:58:28;18.30;65.10
21799;DHT22;24973;47.178;15.316;2024-02-04T14:01:18;18.60;61.30
21799;DHT22;24973;47.178;15.316;2024-02-04T14:04:09;18.60;59.80
21799;DHT22;24973;47.178;15.316;2024-02-04T14:06:58;18.50;59.30
21799;DHT22;24973;47.178;15.316;2024-02-04T14:09:47;18.60;59.10
21799;DHT22;24973;47.178;15.316;2024-02-04T14:12:36;18.90;59.00
21799;DHT22;24973;47.178;15.316;2024-02-04T14:15:26;19.20;57.30
21799;DHT22;24973;47.178;15.316;2024-02-04T14:18:17;18.90;57.50
21799;DHT22;24973;47.178;15.316;2024-02-04T14:21:09;19.10;57.10
21799;DHT22;24973;47.178;15.316;2024-02-04T14:24:01;19.20;56.90
21799;DHT22;24973;47.178;15.316;2024-02-04T14:26:56;19.30;55.90
21799;DHT22;24973;47.178;15.316;2024-02-04T14:29:45;19.50;55.50
21799;DHT22;24973;47.178;15.316;2024-02-04T14:32:34;19.40;55.30
21799;DHT22;24973;47.178;15.316;2024-02-04T14:35:25;19.00;55.70
21799;DHT22;24973;47.178;15.316;2024-02-04T14:38:13;18.70;56.50
21799;DHT22;24973;47.178;15.316;2024-02-04T14:41:03;18.60;56.10
21799;DHT22;24973;47.178;15.316;2024-02-04T14:43:52;18.60;56.30
21799;DHT22;24973;47.178;15.316;2024-02-04T14:46:40;18.80;56.40
21799;DHT22;24973;47.178;15.316;2024-02-04T14:49:32;19.30;56.10
21799;DHT22;24973;47.178;15.316;2024-02-04T14:52:23;19.70;55.00
21799;DHT22;24973;47.178;15.316;2024-02-04T14:55:12;20.30;55.10
21799;DHT22;24973;47.178;15.316;2024-02-04T14:58:01;21.20;55.10
21799;DHT22;24973;47.178;15.316;2024-02-04T15:00:50;22.20;54.30
21799;DHT22;24973;47.178;15.316;2024-02-04T15:03:39;22.80;53.00
21799;DHT22;24973;47.178;15.316;2024-02-04T15:06:28;22.90;51.60
21799;DHT22;24973;47.178;15.316;2024-02-04T15:09:20;23.10;52.00
21799;DHT22;24973;47.178;15.316;2024-02-04T15:12:10;23.50;51.90
21799;DHT22;24973;47.178;15.316;2024-02-04T15:15:02;23.70;51.80
21799;DHT22;24973;47.178;15.316;2024-02-04T15:17:52;23.80;51.70
21799;DHT22;24973;47.178;15.316;2024-02-04T15:20:42;23.50;50.80
21799;DHT22;24973;47.178;15.316;2024-02-04T15:23:31;22.60;51.70
21799;DHT22;24973;47.178;15.316;2024-02-04T15:26:24;21.50;52.50
21799;DHT22;24973;47.178;15.316;2024-02-04T15:29:15;20.60;53.80
21799;DHT22;24973;47.178;15.316;2024-02-04T15:32:09;19.50;54.40
21799;DHT22;24973;47.178;15.316;2024-02-04T15:34:59;18.80;55.30
21799;DHT22;24973;47.178;15.316;2024-02-04T15:37:51;18.20;56.10
21799;DHT22;24973;47.178;15.316;2024-02-04T16:51:47;15.40;96.10
21799;DHT22;24973;47.178;15.316;2024-02-04T16:54:35;15.50;95.20
21799;DHT22;24973;47.178;15.316;2024-02-04T16:57:24;15.40;90.90
21799;DHT22;24973;47.178;15.316;2024-02-04T17:00:14;15.50;88.90
21799;DHT22;24973;47.178;15.316;2024-02-04T17:03:05;15.70;87.20
21799;DHT22;24973;47.178;15.316;2024-02-04T17:05:55;15.50;86.00
21799;DHT22;24973;47.178;15.316;2024-02-04T17:08:46;15.40;85.50
21799;DHT22;24973;47.178;15.316;2024-02-04T17:11:36;15.50;85.30
21799;DHT22;24973;47.178;15.316;2024-02-04T17:14:27;15.50;85.00
21799;DHT22;24973;47.178;15.316;2024-02-04T17:17:16;15.50;84.50
21799;DHT22;24973;47.178;15.316;2024-02-04T17:20:08;15.50;84.30
21799;DHT22;24973;47.178;15.316;2024-02-04T17:23:00;15.40;83.70
21799;DHT22;24973;47.178;15.316;2024-02-04T17:26:00;15.50;84.20
21799;DHT22;24973;47.178;15.316;2024-02-04T17:28:49;15.40;84.20
21799;DHT22;24973;47.178;15.316;2024-02-04T17:31:39;15.30;84.10
21799;DHT22;24973;47.178;15.316;2024-02-04T17:34:29;15.50;84.00
21799;DHT22;24973;47.178;15.316;2024-02-04T17:37:18;15.50;83.90
21799;DHT22;24973;47.178;15.316;2024-02-04T17:40:07;15.50;84.30
21799;DHT22;24973;47.178;15.316;2024-02-04T17:42:58;15.40;84.80
21799;DHT22;24973;47.178;15.316;2024-02-04T17:45:48;15.60;85.00
21799;DHT22;24973;47.178;15.316;2024-02-04T17:48:37;15.50;85.00
21799;DHT22;24973;47.178;15.316;2024-02-04T17:51:28;15.60;84.90
21799;DHT22;24973;47.178;15.316;2024-02-04T17:54:18;15.50;85.30
21799;DHT22;24973;47.178;15.316;2024-02-04T17:57:07;15.40;85.30
21799;DHT22;24973;47.178;15.316;2024-02-04T17:59:59;15.60;85.30
21799;DHT22;24973;47.178;15.316;2024-02-04T18:02:47;15.50;85.10
21799;DHT22;24973;47.178;15.316;2024-02-04T18:05:36;15.60;85.40
21799;DHT22;24973;47.178;15.316;2024-02-04T18:08:29;15.50;85.70
21799;DHT22;24973;47.178;15.316;2024-02-04T18:11:19;15.40;86.90
21799;DHT22;24973;47.178;15.316;2024-02-04T18:14:09;15.30;87.20
21799;DHT22;24973;47.178;15.316;2024-02-04T18:17:00;15.40;87.40
21799;DHT22;24973;47.178;15.316;2024-02-04T18:19:52;15.30;87.70
21799;DHT22;24973;47.178;15.316;2024-02-04T18:22:42;15.00;87.60
21799;DHT22;24973;47.178;15.316;2024-02-04T18:25:31;15.00;88.90
21799;DHT22;24973;47.178;15.316;2024-02-04T18:28:20;14.90;89.40
21799;DHT22;24973;47.178;15.316;2024-02-04T18:31:08;14.80;89.50
21799;DHT22;24973;47.178;15.316;2024-02-04T18:33:59;14.90;90.00
21799;DHT22;24973;47.178;15.316;2024-02-04T18:36:48;14.70;90.10
21799;DHT22;24973;47.178;15.316;2024-02-04T18:39:37;14.80;90.50
21799;DHT22;24973;47.178;15.316;2024-02-04T18:42:27;14.70;90.30
21799;DHT22;24973;47.178;15.316;2024-02-04T18:45:18;14.80;90.40
21799;DHT22;24973;47.178;15.316;2024-02-04T18:48:07;14.60;90.50
21799;DHT22;24973;47.178;15.316;2024-02-04T18:50:58;14.60;90.80
21799;DHT22;24973;47.178;15.316;2024-02-04T18:53:47;14.30;91.00
21799;DHT22;24973;47.178;15.316;2024-02-04T18:56:42;14.30;91.30
21799;DHT22;24973;47.178;15.316;2024-02-04T18:59:34;13.90;91.80
21799;DHT22;24973;47.178;15.316;2024-02-04T19:02:23;13.80;92.10
21799;DHT22;24973;47.178;15.316;2024-02-04T19:05:12;13.60;92.30
21799;DHT22;24973;47.178;15.316;2024-02-04T19:08:02;13.60;92.60
21799;DHT22;24973;47.178;15.316;2024-02-04T19:10:52;13.30;93.10
21799;DHT22;24973;47.178;15.316;2024-02-04T19:13:44;13.00;93.20
21799;DHT22;24973;47.178;15.316;2024-02-04T19:16:33;13.10;93.30
21799;DHT22;24973;47.178;15.316;2024-02-04T19:19:22;13.10;93.30
21799;DHT22;24973;47.178;15.316;2024-02-04T19:22:11;13.20;93.50
21799;DHT22;24973;47.178;15.316;2024-02-04T19:25:01;12.90;93.90
21799;DHT22;24973;47.178;15.316;2024-02-04T19:27:53;13.10;94.00
21799;DHT22;24973;47.178;15.316;2024-02-04T19:30:42;13.00;94.30
21799;DHT22;24973;47.178;15.316;2024-02-04T19:33:31;12.80;94.20
21799;DHT22;24973;47.178;15.316;2024-02-04T19:36:21;13.00;94.30
21799;DHT22;24973;47.178;15.316;2024-02-04T19:39:10;12.90;94.50
21799;DHT22;24973;47.178;15.316;2024-02-04T19:42:00;12.90;94.40
21799;DHT22;24973;47.178;15.316;2024-02-04T19:44:49;12.80;94.60
21799;DHT22;24973;47.178;15.316;2024-02-04T19:47:39;12.90;94.80
21799;DHT22;24973;47.178;15.316;2024-02-04T19:50:28;12.60;94.90
21799;DHT22;24973;47.178;15.316;2024-02-04T19:53:17;12.60;95.10
21799;DHT22;24973;47.178;15.316;2024-02-04T19:56:06;12.50;95.10
21799;DHT22;24973;47.178;15.316;2024-02-04T19:58:56;12.70;95.20
21799;DHT22;24973;47.178;15.316;2024-02-04T20:01:50;12.60;95.50
21799;DHT22;24973;47.178;15.316;2024-02-04T20:04:40;12.30;95.80
21799;DHT22;24973;47.178;15.316;2024-02-04T20:07:28;12.20;95.90
21799;DHT22;24973;47.178;15.316;2024-02-04T20:10:18;12.00;96.30
21799;DHT22;24973;47.178;15.316;2024-02-04T20:13:07;11.80;96.50
21799;DHT22;24973;47.178;15.316;2024-02-04T20:15:57;11.80;96.50
21799;DHT22;24973;47.178;15.316;2024-02-04T20:18:46;11.80;96.50
21799;DHT22;24973;47.178;15.316;2024-02-04T20:21:37;11.90;96.30